sensor_id;sensor_type;location;lat;lon;timestamp;P1;durP1;ratioP1;P2;durP2;ratioP2
20826;SDS011;10574;52.508;13.236;2023-08-20T00:00:41;5.15;;;2.05;;
20826;SDS011;10574;52.508;13.236;2023-08-20T00:03:10;2.10;;;1.22;;
20826;SDS011;10574;52.508;13.236;2023-08-20T00:05:39;4.28;;;1.92;;
20826;SDS011;10574;52.508;13.236;2023-08-20T00:08:07;3.08;;;2.10;;
20826;SDS011;10574;52.508;13.236;2023-08-20T00:10:35;1.02;;;1.02;;
20826;SDS011;10574;52.508;13.236;2023-08-20T00:13:03;1.05;;;0.78;;
20826;SDS011;10574;52.508;13.236;2023-08-20T00:15:31;2.08;;;1.75;;
20826;SDS011;10574;52.508;13.236;2023-08-20T00:17:58;2.37;;;1.65;;
20826;SDS011;10574;52.508;13.236;2023-08-20T00:20:26;4.42;;;2.05;;
20826;SDS011;10574;52.508;13.236;2023-08-20T00:22:55;3.75;;;1.62;;
20826;SDS011;10574;52.508;13.236;2023-08-20T00:25:23;0.78;;;0.78;;
20826;SDS011;10574;52.508;13.236;2023-08-20T00:27:51;1.85;;;1.27;;
20826;SDS011;10574;52.508;13.236;2023-08-20T00:30:18;1.42;;;1.30;;
20826;SDS011;10574;52.508;13.236;2023-08-20T00:32:46;0.98;;;0.98;;
20826;SDS011;10574;52.508;13.236;2023-08-20T00:35:14;3.12;;;1.65;;
20826;SDS011;10574;52.508;13.236;2023-08-20T00:37:42;1.77;;;1.45;;
20826;SDS011;10574;52.508;13.236;2023-08-20T00:40:10;1.20;;;1.07;;
20826;SDS011;10574;52.508;13.236;2023-08-20T00:42:38;1.75;;;1.50;;
20826;SDS011;10574;52.508;13.236;2023-08-20T00:45:06;5.12;;;2.08;;
20826;SDS011;10574;52.508;13.236;2023-08-20T00:47:34;3.20;;;1.72;;
20826;SDS011;10574;52.508;13.236;2023-08-20T00:50:02;2.52;;;1.50;;
20826;SDS011;10574;52.508;13.236;2023-08-20T00:52:33;5.20;;;2.17;;
20826;SDS011;10574;52.508;13.236;2023-08-20T00:55:08;1.25;;;1.10;;
20826;SDS011;10574;52.508;13.236;2023-08-20T00:57:37;2.92;;;1.82;;
20826;SDS011;10574;52.508;13.236;2023-08-20T01:00:06;1.77;;;1.30;;
20826;SDS011;10574;52.508;13.236;2023-08-20T01:02:37;4.22;;;1.95;;
20826;SDS011;10574;52.508;13.236;2023-08-20T01:05:06;2.62;;;0.95;;
20826;SDS011;10574;52.508;13.236;2023-08-20T01:12:46;3.45;;;2.12;;
20826;SDS011;10574;52.508;13.236;2023-08-20T01:15:14;2.22;;;0.93;;
20826;SDS011;10574;52.508;13.236;2023-08-20T01:17:43;1.15;;;0.93;;
20826;SDS011;10574;52.508;13.236;2023-08-20T01:20:12;4.20;;;3.05;;
20826;SDS011;10574;52.508;13.236;2023-08-20T01:22:52;3.65;;;2.17;;
20826;SDS011;10574;52.508;13.236;2023-08-20T01:28:18;4.35;;;1.77;;
20826;SDS011;10574;52.508;13.236;2023-08-20T01:30:43;2.58;;;2.15;;
20826;SDS011;10574;52.508;13.236;2023-08-20T01:33:12;5.53;;;1.70;;
20826;SDS011;10574;52.508;13.236;2023-08-20T01:35:41;2.90;;;1.85;;
20826;SDS011;10574;52.508;13.236;2023-08-20T01:38:09;0.93;;;0.90;;
20826;SDS011;10574;52.508;13.236;2023-08-20T01:40:36;0.90;;;0.90;;
20826;SDS011;10574;52.508;13.236;2023-08-20T01:43:04;3.75;;;1.65;;
20826;SDS011;10574;52.508;13.236;2023-08-20T01:45:33;5.28;;;2.45;;
20826;SDS011;10574;52.508;13.236;2023-08-20T01:48:00;2.30;;;1.67;;
20826;SDS011;10574;52.508;13.236;2023-08-20T01:50:29;4.00;;;1.45;;
20826;SDS011;10574;52.508;13.236;2023-08-20T01:52:57;3.47;;;1.47;;
20826;SDS011;10574;52.508;13.236;2023-08-20T01:55:25;0.93;;;0.90;;
20826;SDS011;10574;52.508;13.236;2023-08-20T01:57:53;2.35;;;1.15;;
20826;SDS011;10574;52.508;13.236;2023-08-20T02:00:20;7.30;;;1.85;;
20826;SDS011;10574;52.508;13.236;2023-08-20T02:02:48;15.72;;;2.02;;
20826;SDS011;10574;52.508;13.236;2023-08-20T02:05:15;6.17;;;2.33;;
20826;SDS011;10574;52.508;13.236;2023-08-20T02:07:43;1.62;;;1.17;;
20826;SDS011;10574;52.508;13.236;2023-08-20T02:10:11;8.68;;;2.00;;
20826;SDS011;10574;52.508;13.236;2023-08-20T02:12:39;1.37;;;0.88;;
20826;SDS011;10574;52.508;13.236;2023-08-20T02:15:07;2.37;;;1.65;;
20826;SDS011;10574;52.508;13.236;2023-08-20T02:17:37;2.40;;;1.25;;
20826;SDS011;10574;52.508;13.236;2023-08-20T02:20:05;1.22;;;1.10;;
20826;SDS011;10574;52.508;13.236;2023-08-20T02:22:36;1.72;;;0.85;;
20826;SDS011;10574;52.508;13.236;2023-08-20T02:25:04;1.12;;;1.12;;
20826;SDS011;10574;52.508;13.236;2023-08-20T02:27:31;1.20;;;1.10;;
20826;SDS011;10574;52.508;13.236;2023-08-20T02:29:59;2.12;;;1.37;;
20826;SDS011;10574;52.508;13.236;2023-08-20T02:32:27;2.17;;;1.32;;
20826;SDS011;10574;52.508;13.236;2023-08-20T02:34:55;1.90;;;1.43;;
20826;SDS011;10574;52.508;13.236;2023-08-20T02:37:24;2.17;;;0.87;;
20826;SDS011;10574;52.508;13.236;2023-08-20T02:39:51;1.80;;;1.40;;
20826;SDS011;10574;52.508;13.236;2023-08-20T02:42:19;2.12;;;1.00;;
20826;SDS011;10574;52.508;13.236;2023-08-20T02:44:47;0.83;;;0.70;;
20826;SDS011;10574;52.508;13.236;2023-08-20T02:47:15;2.85;;;1.57;;
20826;SDS011;10574;52.508;13.236;2023-08-20T02:49:42;8.03;;;1.67;;
20826;SDS011;10574;52.508;13.236;2023-08-20T02:52:10;2.27;;;1.60;;
20826;SDS011;10574;52.508;13.236;2023-08-20T02:54:38;2.23;;;1.10;;
20826;SDS011;10574;52.508;13.236;2023-08-20T02:57:05;1.30;;;1.00;;
20826;SDS011;10574;52.508;13.236;2023-08-20T02:59:33;10.63;;;1.73;;
20826;SDS011;10574;52.508;13.236;2023-08-20T03:02:01;1.53;;;1.43;;
20826;SDS011;10574;52.508;13.236;2023-08-20T03:04:29;3.27;;;1.70;;
20826;SDS011;10574;52.508;13.236;2023-08-20T03:06:57;1.90;;;1.37;;
20826;SDS011;10574;52.508;13.236;2023-08-20T03:09:24;4.00;;;1.83;;
20826;SDS011;10574;52.508;13.236;2023-08-20T03:11:52;1.60;;;1.30;;
20826;SDS011;10574;52.508;13.236;2023-08-20T03:14:20;3.57;;;1.77;;
20826;SDS011;10574;52.508;13.236;2023-08-20T03:16:47;1.37;;;1.27;;
20826;SDS011;10574;52.508;13.236;2023-08-20T03:19:15;1.93;;;1.60;;
20826;SDS011;10574;52.508;13.236;2023-08-20T03:21:43;3.33;;;1.10;;
20826;SDS011;10574;52.508;13.236;2023-08-20T03:24:11;4.67;;;1.67;;
20826;SDS011;10574;52.508;13.236;2023-08-20T03:26:38;2.53;;;1.50;;
20826;SDS011;10574;52.508;13.236;2023-08-20T03:29:06;2.83;;;1.80;;
20826;SDS011;10574;52.508;13.236;2023-08-20T03:31:34;2.07;;;1.20;;
20826;SDS011;10574;52.508;13.236;2023-08-20T03:34:01;1.60;;;1.50;;
20826;SDS011;10574;52.508;13.236;2023-08-20T03:36:29;1.43;;;0.80;;
20826;SDS011;10574;52.508;13.236;2023-08-20T03:38:58;2.93;;;1.33;;
20826;SDS011;10574;52.508;13.236;2023-08-20T03:41:25;2.50;;;1.60;;
20826;SDS011;10574;52.508;13.236;2023-08-20T03:43:53;3.63;;;1.57;;
20826;SDS011;10574;52.508;13.236;2023-08-20T03:46:21;2.80;;;1.30;;
20826;SDS011;10574;52.508;13.236;2023-08-20T03:48:48;3.60;;;1.17;;
20826;SDS011;10574;52.508;13.236;2023-08-20T03:51:16;1.47;;;1.17;;
20826;SDS011;10574;52.508;13.236;2023-08-20T03:53:44;8.53;;;0.90;;
20826;SDS011;10574;52.508;13.236;2023-08-20T03:56:12;9.50;;;1.33;;
20826;SDS011;10574;52.508;13.236;2023-08-20T03:58:39;4.23;;;1.53;;
20826;SDS011;10574;52.508;13.236;2023-08-20T04:01:07;2.33;;;0.97;;
20826;SDS011;10574;52.508;13.236;2023-08-20T04:03:35;1.33;;;0.80;;
20826;SDS011;10574;52.508;13.236;2023-08-20T04:06:02;1.03;;;0.97;;
20826;SDS011;10574;52.508;13.236;2023-08-20T04:08:30;1.70;;;1.37;;
20826;SDS011;10574;52.508;13.236;2023-08-20T04:10:58;1.53;;;1.40;;
20826;SDS011;10574;52.508;13.236;2023-08-20T04:13:27;1.87;;;0.67;;
20826;SDS011;10574;52.508;13.236;2023-08-20T04:15:54;3.13;;;1.93;;
20826;SDS011;10574;52.508;13.236;2023-08-20T04:18:22;3.30;;;1.50;;
20826;SDS011;10574;52.508;13.236;2023-08-20T04:20:50;3.97;;;1.33;;
20826;SDS011;10574;52.508;13.236;2023-08-20T04:23:19;2.07;;;1.37;;
20826;SDS011;10574;52.508;13.236;2023-08-20T04:25:47;4.73;;;3.30;;
20826;SDS011;10574;52.508;13.236;2023-08-20T04:28:15;1.70;;;1.57;;
20826;SDS011;10574;52.508;13.236;2023-08-20T04:30:42;4.17;;;1.27;;
20826;SDS011;10574;52.508;13.236;2023-08-20T04:33:10;4.23;;;1.43;;
20826;SDS011;10574;52.508;13.236;2023-08-20T04:35:38;2.00;;;1.67;;
20826;SDS011;10574;52.508;13.236;2023-08-20T04:38:06;2.53;;;1.77;;
20826;SDS011;10574;52.508;13.236;2023-08-20T04:40:33;1.37;;;1.27;;
20826;SDS011;10574;52.508;13.236;2023-08-20T04:43:01;1.77;;;1.30;;
20826;SDS011;10574;52.508;13.236;2023-08-20T04:45:29;1.17;;;1.10;;
20826;SDS011;10574;52.508;13.236;2023-08-20T04:47:56;2.60;;;1.60;;
20826;SDS011;10574;52.508;13.236;2023-08-20T04:50:24;2.40;;;2.03;;
20826;SDS011;10574;52.508;13.236;2023-08-20T04:52:52;2.30;;;1.43;;
20826;SDS011;10574;52.508;13.236;2023-08-20T04:55:20;3.50;;;2.00;;
20826;SDS011;10574;52.508;13.236;2023-08-20T04:57:48;2.93;;;1.27;;
20826;SDS011;10574;52.508;13.236;2023-08-20T05:00:16;3.00;;;2.40;;
20826;SDS011;10574;52.508;13.236;2023-08-20T05:02:43;2.57;;;1.23;;
20826;SDS011;10574;52.508;13.236;2023-08-20T05:05:11;2.03;;;1.23;;
20826;SDS011;10574;52.508;13.236;2023-08-20T05:07:39;2.23;;;1.50;;
20826;SDS011;10574;52.508;13.236;2023-08-20T05:10:10;2.63;;;1.50;;
20826;SDS011;10574;52.508;13.236;2023-08-20T05:12:37;5.70;;;2.63;;
20826;SDS011;10574;52.508;13.236;2023-08-20T05:15:05;2.20;;;1.63;;
20826;SDS011;10574;52.508;13.236;2023-08-20T05:17:33;6.53;;;1.57;;
20826;SDS011;10574;52.508;13.236;2023-08-20T05:20:01;1.70;;;1.57;;
20826;SDS011;10574;52.508;13.236;2023-08-20T05:22:29;1.87;;;1.67;;
20826;SDS011;10574;52.508;13.236;2023-08-20T05:24:57;8.07;;;2.27;;
20826;SDS011;10574;52.508;13.236;2023-08-20T05:27:25;3.77;;;1.47;;
20826;SDS011;10574;52.508;13.236;2023-08-20T05:29:52;3.93;;;2.17;;
20826;SDS011;10574;52.508;13.236;2023-08-20T05:32:20;3.27;;;1.53;;
20826;SDS011;10574;52.508;13.236;2023-08-20T05:34:48;8.50;;;2.83;;
20826;SDS011;10574;52.508;13.236;2023-08-20T05:37:16;1.20;;;1.03;;
20826;SDS011;10574;52.508;13.236;2023-08-20T05:39:44;6.57;;;3.10;;
20826;SDS011;10574;52.508;13.236;2023-08-20T05:42:12;4.60;;;2.87;;
20826;SDS011;10574;52.508;13.236;2023-08-20T05:44:40;4.20;;;2.20;;
20826;SDS011;10574;52.508;13.236;2023-08-20T05:47:08;5.97;;;3.37;;
20826;SDS011;10574;52.508;13.236;2023-08-20T05:49:36;3.00;;;2.23;;
20826;SDS011;10574;52.508;13.236;2023-08-20T05:52:03;4.77;;;3.10;;
20826;SDS011;10574;52.508;13.236;2023-08-20T05:54:31;4.93;;;2.47;;
20826;SDS011;10574;52.508;13.236;2023-08-20T05:56:59;2.93;;;2.40;;
20826;SDS011;10574;52.508;13.236;2023-08-20T05:59:27;10.60;;;3.20;;
20826;SDS011;10574;52.508;13.236;2023-08-20T06:01:55;5.90;;;3.60;;
20826;SDS011;10574;52.508;13.236;2023-08-20T06:04:23;4.00;;;2.70;;
20826;SDS011;10574;52.508;13.236;2023-08-20T06:06:51;6.10;;;2.40;;
20826;SDS011;10574;52.508;13.236;2023-08-20T06:09:18;9.57;;;4.30;;
20826;SDS011;10574;52.508;13.236;2023-08-20T06:11:46;4.67;;;2.23;;
20826;SDS011;10574;52.508;13.236;2023-08-20T06:14:15;3.57;;;2.07;;
20826;SDS011;10574;52.508;13.236;2023-08-20T06:16:42;5.30;;;2.97;;
20826;SDS011;10574;52.508;13.236;2023-08-20T06:19:10;4.87;;;2.47;;
20826;SDS011;10574;52.508;13.236;2023-08-20T06:21:38;6.33;;;2.53;;
20826;SDS011;10574;52.508;13.236;2023-08-20T06:24:06;4.57;;;2.50;;
20826;SDS011;10574;52.508;13.236;2023-08-20T06:26:34;1.80;;;1.70;;
20826;SDS011;10574;52.508;13.236;2023-08-20T06:29:02;7.37;;;2.00;;
20826;SDS011;10574;52.508;13.236;2023-08-20T06:31:30;3.03;;;2.53;;
20826;SDS011;10574;52.508;13.236;2023-08-20T06:33:58;10.13;;;2.90;;
20826;SDS011;10574;52.508;13.236;2023-08-20T06:36:25;4.87;;;3.03;;
20826;SDS011;10574;52.508;13.236;2023-08-20T06:38:53;7.03;;;2.80;;
20826;SDS011;10574;52.508;13.236;2023-08-20T06:41:21;5.10;;;2.13;;
20826;SDS011;10574;52.508;13.236;2023-08-20T06:43:49;3.20;;;2.13;;
20826;SDS011;10574;52.508;13.236;2023-08-20T06:46:17;4.57;;;2.80;;
20826;SDS011;10574;52.508;13.236;2023-08-20T06:48:45;5.83;;;2.30;;
20826;SDS011;10574;52.508;13.236;2023-08-20T06:51:13;4.07;;;3.27;;
20826;SDS011;10574;52.508;13.236;2023-08-20T06:53:44;4.07;;;2.73;;
20826;SDS011;10574;52.508;13.236;2023-08-20T06:56:11;2.40;;;1.90;;
20826;SDS011;10574;52.508;13.236;2023-08-20T06:58:39;8.57;;;3.17;;
20826;SDS011;10574;52.508;13.236;2023-08-20T07:01:08;10.17;;;1.80;;
20826;SDS011;10574;52.508;13.236;2023-08-20T07:03:39;7.47;;;2.00;;
20826;SDS011;10574;52.508;13.236;2023-08-20T07:06:08;4.47;;;3.13;;
20826;SDS011;10574;52.508;13.236;2023-08-20T07:08:37;7.50;;;2.43;;
20826;SDS011;10574;52.508;13.236;2023-08-20T07:11:05;4.07;;;1.87;;
20826;SDS011;10574;52.508;13.236;2023-08-20T07:13:33;3.07;;;1.53;;
20826;SDS011;10574;52.508;13.236;2023-08-20T07:16:01;2.60;;;1.50;;
20826;SDS011;10574;52.508;13.236;2023-08-20T07:18:29;2.97;;;1.13;;
20826;SDS011;10574;52.508;13.236;2023-08-20T07:20:56;3.20;;;1.23;;
20826;SDS011;10574;52.508;13.236;2023-08-20T07:23:24;1.30;;;1.20;;
20826;SDS011;10574;52.508;13.236;2023-08-20T07:25:59;1.40;;;1.30;;
20826;SDS011;10574;52.508;13.236;2023-08-20T07:28:34;3.33;;;1.47;;
20826;SDS011;10574;52.508;13.236;2023-08-20T07:31:16;1.98;;;0.88;;
20826;SDS011;10574;52.508;13.236;2023-08-20T07:33:47;2.80;;;1.25;;
20826;SDS011;10574;52.508;13.236;2023-08-20T07:36:15;1.45;;;1.20;;
20826;SDS011;10574;52.508;13.236;2023-08-20T07:38:44;0.47;;;0.47;;
20826;SDS011;10574;52.508;13.236;2023-08-20T07:41:11;2.50;;;0.53;;
20826;SDS011;10574;52.508;13.236;2023-08-20T07:43:39;1.20;;;0.50;;
20826;SDS011;10574;52.508;13.236;2023-08-20T07:46:08;0.60;;;0.47;;
20826;SDS011;10574;52.508;13.236;2023-08-20T07:48:36;0.78;;;0.78;;
20826;SDS011;10574;52.508;13.236;2023-08-20T07:51:05;0.90;;;0.68;;
20826;SDS011;10574;52.508;13.236;2023-08-20T07:53:33;1.95;;;0.80;;
20826;SDS011;10574;52.508;13.236;2023-08-20T07:56:01;0.30;;;0.15;;
20826;SDS011;10574;52.508;13.236;2023-08-20T07:58:31;3.20;;;0.85;;
20826;SDS011;10574;52.508;13.236;2023-08-20T08:00:59;0.40;;;0.40;;
20826;SDS011;10574;52.508;13.236;2023-08-20T08:03:27;1.67;;;0.53;;
20826;SDS011;10574;52.508;13.236;2023-08-20T08:05:57;0.65;;;0.40;;
20826;SDS011;10574;52.508;13.236;2023-08-20T08:08:28;0.85;;;0.60;;
20826;SDS011;10574;52.508;13.236;2023-08-20T08:10:56;0.40;;;0.40;;
20826;SDS011;10574;52.508;13.236;2023-08-20T08:13:25;0.65;;;0.57;;
20826;SDS011;10574;52.508;13.236;2023-08-20T08:15:53;0.13;;;0.13;;
20826;SDS011;10574;52.508;13.236;2023-08-20T08:18:21;0.17;;;0.17;;
20826;SDS011;10574;52.508;13.236;2023-08-20T08:20:48;0.20;;;0.20;;
20826;SDS011;10574;52.508;13.236;2023-08-20T08:23:16;0.20;;;0.20;;
20826;SDS011;10574;52.508;13.236;2023-08-20T08:25:44;0.08;;;0.08;;
20826;SDS011;10574;52.508;13.236;2023-08-20T08:28:11;0.28;;;0.28;;
20826;SDS011;10574;52.508;13.236;2023-08-20T08:30:39;0.10;;;0.10;;
20826;SDS011;10574;52.508;13.236;2023-08-20T08:33:07;0.85;;;0.10;;
20826;SDS011;10574;52.508;13.236;2023-08-20T08:35:38;0.28;;;0.28;;
20826;SDS011;10574;52.508;13.236;2023-08-20T08:38:06;0.68;;;0.33;;
20826;SDS011;10574;52.508;13.236;2023-08-20T08:40:34;0.28;;;0.28;;
20826;SDS011;10574;52.508;13.236;2023-08-20T08:43:02;0.10;;;0.10;;
20826;SDS011;10574;52.508;13.236;2023-08-20T08:45:30;0.20;;;0.20;;
20826;SDS011;10574;52.508;13.236;2023-08-20T08:47:59;0.10;;;0.10;;
20826;SDS011;10574;52.508;13.236;2023-08-20T08:50:29;0.17;;;0.10;;
20826;SDS011;10574;52.508;13.236;2023-08-20T08:52:58;5.83;;;0.70;;
20826;SDS011;10574;52.508;13.236;2023-08-20T08:55:26;3.83;;;1.47;;
20826;SDS011;10574;52.508;13.236;2023-08-20T08:57:54;0.00;;;0.00;;
20826;SDS011;10574;52.508;13.236;2023-08-20T09:00:22;0.10;;;0.10;;
20826;SDS011;10574;52.508;13.236;2023-08-20T09:02:49;0.45;;;0.10;;
20826;SDS011;10574;52.508;13.236;2023-08-20T09:05:17;1.65;;;0.20;;
20826;SDS011;10574;52.508;13.236;2023-08-20T09:07:45;0.00;;;0.00;;
20826;SDS011;10574;52.508;13.236;2023-08-20T09:10:13;4.33;;;0.85;;
20826;SDS011;10574;52.508;13.236;2023-08-20T09:12:44;0.45;;;0.15;;
20826;SDS011;10574;52.508;13.236;2023-08-20T09:15:13;0.47;;;0.10;;
20826;SDS011;10574;52.508;13.236;2023-08-20T09:17:41;1.15;;;0.72;;
20826;SDS011;10574;52.508;13.236;2023-08-20T09:20:09;0.15;;;0.15;;
20826;SDS011;10574;52.508;13.236;2023-08-20T09:22:38;0.00;;;0.00;;
20826;SDS011;10574;52.508;13.236;2023-08-20T09:25:06;0.42;;;0.42;;
20826;SDS011;10574;52.508;13.236;2023-08-20T09:27:47;4.95;;;0.20;;
20826;SDS011;10574;52.508;13.236;2023-08-20T09:30:17;0.10;;;0.10;;
20826;SDS011;10574;52.508;13.236;2023-08-20T09:32:45;1.20;;;0.78;;
20826;SDS011;10574;52.508;13.236;2023-08-20T09:35:34;0.20;;;0.10;;
20826;SDS011;10574;52.508;13.236;2023-08-20T09:38:03;0.98;;;0.50;;
20826;SDS011;10574;52.508;13.236;2023-08-20T09:40:31;0.47;;;0.47;;
20826;SDS011;10574;52.508;13.236;2023-08-20T09:42:59;1.07;;;0.75;;
20826;SDS011;10574;52.508;13.236;2023-08-20T09:45:29;0.10;;;0.10;;
20826;SDS011;10574;52.508;13.236;2023-08-20T09:47:58;0.70;;;0.42;;
20826;SDS011;10574;52.508;13.236;2023-08-20T09:50:26;0.10;;;0.10;;
20826;SDS011;10574;52.508;13.236;2023-08-20T09:53:06;0.37;;;0.23;;
20826;SDS011;10574;52.508;13.236;2023-08-20T09:55:34;1.52;;;0.17;;
20826;SDS011;10574;52.508;13.236;2023-08-20T09:58:05;0.20;;;0.20;;
20826;SDS011;10574;52.508;13.236;2023-08-20T10:00:33;0.72;;;0.60;;
20826;SDS011;10574;52.508;13.236;2023-08-20T10:03:02;1.95;;;1.02;;
20826;SDS011;10574;52.508;13.236;2023-08-20T10:05:30;0.62;;;0.20;;
20826;SDS011;10574;52.508;13.236;2023-08-20T10:07:59;7.33;;;0.62;;
20826;SDS011;10574;52.508;13.236;2023-08-20T10:10:28;0.98;;;0.23;;
20826;SDS011;10574;52.508;13.236;2023-08-20T10:12:57;0.20;;;0.20;;
20826;SDS011;10574;52.508;13.236;2023-08-20T10:15:25;0.30;;;0.30;;
20826;SDS011;10574;52.508;13.236;2023-08-20T10:17:55;0.33;;;0.23;;
20826;SDS011;10574;52.508;13.236;2023-08-20T10:20:23;0.45;;;0.35;;
20826;SDS011;10574;52.508;13.236;2023-08-20T10:25:30;0.20;;;0.20;;
20826;SDS011;10574;52.508;13.236;2023-08-20T10:31:27;0.00;;;0.00;;
20826;SDS011;10574;52.508;13.236;2023-08-20T10:33:28;0.80;;;0.40;;
20826;SDS011;10574;52.508;13.236;2023-08-20T10:35:56;0.78;;;0.65;;
20826;SDS011;10574;52.508;13.236;2023-08-20T10:38:23;0.45;;;0.28;;
20826;SDS011;10574;52.508;13.236;2023-08-20T10:40:58;5.30;;;1.02;;
20826;SDS011;10574;52.508;13.236;2023-08-20T10:48:42;0.20;;;0.15;;
20826;SDS011;10574;52.508;13.236;2023-08-20T10:51:12;0.20;;;0.20;;
20826;SDS011;10574;52.508;13.236;2023-08-20T10:53:42;2.98;;;0.60;;
20826;SDS011;10574;52.508;13.236;2023-08-20T10:56:12;0.20;;;0.20;;
20826;SDS011;10574;52.508;13.236;2023-08-20T10:58:42;0.78;;;0.78;;
20826;SDS011;10574;52.508;13.236;2023-08-20T11:03:45;0.20;;;0.20;;
20826;SDS011;10574;52.508;13.236;2023-08-20T11:06:20;0.85;;;0.20;;
20826;SDS011;10574;52.508;13.236;2023-08-20T11:09:05;0.28;;;0.28;;
20826;SDS011;10574;52.508;13.236;2023-08-20T11:11:33;2.37;;;0.62;;
20826;SDS011;10574;52.508;13.236;2023-08-20T11:14:05;0.62;;;0.50;;
20826;SDS011;10574;52.508;13.236;2023-08-20T11:16:35;0.95;;;0.50;;
20826;SDS011;10574;52.508;13.236;2023-08-20T11:19:04;2.42;;;0.80;;
20826;SDS011;10574;52.508;13.236;2023-08-20T11:21:34;0.85;;;0.37;;
20826;SDS011;10574;52.508;13.236;2023-08-20T11:24:03;4.85;;;0.55;;
20826;SDS011;10574;52.508;13.236;2023-08-20T11:26:35;0.30;;;0.28;;
20826;SDS011;10574;52.508;13.236;2023-08-20T11:29:15;0.45;;;0.45;;
20826;SDS011;10574;52.508;13.236;2023-08-20T11:31:48;0.72;;;0.20;;
20826;SDS011;10574;52.508;13.236;2023-08-20T11:34:18;0.40;;;0.40;;
20826;SDS011;10574;52.508;13.236;2023-08-20T11:36:46;0.30;;;0.30;;
20826;SDS011;10574;52.508;13.236;2023-08-20T11:39:14;0.20;;;0.20;;
20826;SDS011;10574;52.508;13.236;2023-08-20T11:41:44;0.45;;;0.33;;
20826;SDS011;10574;52.508;13.236;2023-08-20T11:44:18;3.17;;;0.72;;
20826;SDS011;10574;52.508;13.236;2023-08-20T11:46:52;0.95;;;0.35;;
20826;SDS011;10574;52.508;13.236;2023-08-20T11:49:26;0.10;;;0.10;;
20826;SDS011;10574;52.508;13.236;2023-08-20T11:51:57;0.88;;;0.47;;
20826;SDS011;10574;52.508;13.236;2023-08-20T11:54:25;1.95;;;0.25;;
20826;SDS011;10574;52.508;13.236;2023-08-20T11:57:01;1.47;;;0.33;;
20826;SDS011;10574;52.508;13.236;2023-08-20T11:59:23;0.85;;;0.53;;
20826;SDS011;10574;52.508;13.236;2023-08-20T12:01:52;0.42;;;0.35;;
20826;SDS011;10574;52.508;13.236;2023-08-20T12:04:23;2.50;;;0.75;;
20826;SDS011;10574;52.508;13.236;2023-08-20T12:07:09;0.15;;;0.10;;
20826;SDS011;10574;52.508;13.236;2023-08-20T12:09:35;11.68;;;0.40;;
20826;SDS011;10574;52.508;13.236;2023-08-20T12:12:08;1.85;;;0.68;;
20826;SDS011;10574;52.508;13.236;2023-08-20T12:14:39;0.25;;;0.25;;
20826;SDS011;10574;52.508;13.236;2023-08-20T12:17:03;0.10;;;0.10;;
20826;SDS011;10574;52.508;13.236;2023-08-20T12:19:30;0.42;;;0.30;;
20826;SDS011;10574;52.508;13.236;2023-08-20T12:21:59;1.15;;;0.47;;
20826;SDS011;10574;52.508;13.236;2023-08-20T12:24:26;1.32;;;0.68;;
20826;SDS011;10574;52.508;13.236;2023-08-20T12:26:54;1.75;;;0.53;;
20826;SDS011;10574;52.508;13.236;2023-08-20T12:29:22;0.60;;;0.25;;
20826;SDS011;10574;52.508;13.236;2023-08-20T12:31:49;0.00;;;0.00;;
20826;SDS011;10574;52.508;13.236;2023-08-20T12:34:17;0.35;;;0.30;;
20826;SDS011;10574;52.508;13.236;2023-08-20T12:36:46;0.35;;;0.25;;
20826;SDS011;10574;52.508;13.236;2023-08-20T12:39:14;0.53;;;0.40;;
20826;SDS011;10574;52.508;13.236;2023-08-20T12:41:42;0.10;;;0.10;;
20826;SDS011;10574;52.508;13.236;2023-08-20T12:44:09;0.23;;;0.17;;
20826;SDS011;10574;52.508;13.236;2023-08-20T12:46:37;0.45;;;0.45;;
20826;SDS011;10574;52.508;13.236;2023-08-20T12:49:05;0.00;;;0.00;;
20826;SDS011;10574;52.508;13.236;2023-08-20T12:51:32;0.98;;;0.23;;
20826;SDS011;10574;52.508;13.236;2023-08-20T12:54:00;4.45;;;0.30;;
20826;SDS011;10574;52.508;13.236;2023-08-20T12:56:28;0.75;;;0.33;;
20826;SDS011;10574;52.508;13.236;2023-08-20T12:58:55;0.10;;;0.10;;
20826;SDS011;10574;52.508;13.236;2023-08-20T13:01:23;0.72;;;0.40;;
20826;SDS011;10574;52.508;13.236;2023-08-20T13:03:51;0.05;;;0.05;;
20826;SDS011;10574;52.508;13.236;2023-08-20T13:06:19;0.28;;;0.25;;
20826;SDS011;10574;52.508;13.236;2023-08-20T13:08:48;3.20;;;0.47;;
20826;SDS011;10574;52.508;13.236;2023-08-20T13:11:16;0.28;;;0.17;;
20826;SDS011;10574;52.508;13.236;2023-08-20T13:13:46;0.45;;;0.40;;
20826;SDS011;10574;52.508;13.236;2023-08-20T13:16:15;0.57;;;0.53;;
20826;SDS011;10574;52.508;13.236;2023-08-20T13:18:45;0.20;;;0.20;;
20826;SDS011;10574;52.508;13.236;2023-08-20T13:21:13;0.23;;;0.23;;
20826;SDS011;10574;52.508;13.236;2023-08-20T13:23:41;1.42;;;0.50;;
20826;SDS011;10574;52.508;13.236;2023-08-20T13:26:12;0.72;;;0.20;;
20826;SDS011;10574;52.508;13.236;2023-08-20T13:28:39;0.72;;;0.72;;
20826;SDS011;10574;52.508;13.236;2023-08-20T13:31:07;0.25;;;0.17;;
20826;SDS011;10574;52.508;13.236;2023-08-20T13:33:35;0.25;;;0.20;;
20826;SDS011;10574;52.508;13.236;2023-08-20T13:36:02;0.23;;;0.23;;
20826;SDS011;10574;52.508;13.236;2023-08-20T13:38:30;0.20;;;0.10;;
20826;SDS011;10574;52.508;13.236;2023-08-20T13:41:01;0.68;;;0.42;;
20826;SDS011;10574;52.508;13.236;2023-08-20T13:43:29;3.62;;;0.35;;
20826;SDS011;10574;52.508;13.236;2023-08-20T13:45:57;0.98;;;0.28;;
20826;SDS011;10574;52.508;13.236;2023-08-20T13:48:25;0.28;;;0.28;;
20826;SDS011;10574;52.508;13.236;2023-08-20T13:50:53;0.40;;;0.20;;
20826;SDS011;10574;52.508;13.236;2023-08-20T13:53:21;1.60;;;0.85;;
20826;SDS011;10574;52.508;13.236;2023-08-20T13:55:48;0.03;;;0.03;;
20826;SDS011;10574;52.508;13.236;2023-08-20T13:58:17;11.22;;;1.35;;
20826;SDS011;10574;52.508;13.236;2023-08-20T14:00:45;0.90;;;0.60;;
20826;SDS011;10574;52.508;13.236;2023-08-20T14:03:13;0.00;;;0.00;;
20826;SDS011;10574;52.508;13.236;2023-08-20T14:05:41;0.10;;;0.10;;
20826;SDS011;10574;52.508;13.236;2023-08-20T14:08:10;0.25;;;0.17;;
20826;SDS011;10574;52.508;13.236;2023-08-20T14:10:38;0.75;;;0.28;;
20826;SDS011;10574;52.508;13.236;2023-08-20T14:13:05;0.20;;;0.17;;
20826;SDS011;10574;52.508;13.236;2023-08-20T14:15:33;0.90;;;0.30;;
20826;SDS011;10574;52.508;13.236;2023-08-20T14:18:02;1.42;;;0.20;;
20826;SDS011;10574;52.508;13.236;2023-08-20T14:20:30;0.40;;;0.40;;
20826;SDS011;10574;52.508;13.236;2023-08-20T14:22:58;0.42;;;0.42;;
20826;SDS011;10574;52.508;13.236;2023-08-20T14:25:26;0.00;;;0.00;;
20826;SDS011;10574;52.508;13.236;2023-08-20T14:27:53;0.05;;;0.05;;
20826;SDS011;10574;52.508;13.236;2023-08-20T14:30:21;0.03;;;0.03;;
20826;SDS011;10574;52.508;13.236;2023-08-20T14:32:49;0.00;;;0.00;;
20826;SDS011;10574;52.508;13.236;2023-08-20T14:35:16;1.75;;;0.33;;
20826;SDS011;10574;52.508;13.236;2023-08-20T14:37:44;0.50;;;0.45;;
20826;SDS011;10574;52.508;13.236;2023-08-20T14:40:12;0.50;;;0.50;;
20826;SDS011;10574;52.508;13.236;2023-08-20T14:42:39;0.57;;;0.30;;
20826;SDS011;10574;52.508;13.236;2023-08-20T14:45:08;0.28;;;0.28;;
20826;SDS011;10574;52.508;13.236;2023-08-20T14:47:36;0.08;;;0.08;;
20826;SDS011;10574;52.508;13.236;2023-08-20T14:50:04;0.23;;;0.23;;
20826;SDS011;10574;52.508;13.236;2023-08-20T14:52:33;0.10;;;0.10;;
20826;SDS011;10574;52.508;13.236;2023-08-20T14:55:01;0.17;;;0.17;;
20826;SDS011;10574;52.508;13.236;2023-08-20T14:57:30;0.10;;;0.10;;
20826;SDS011;10574;52.508;13.236;2023-08-20T14:59:58;0.10;;;0.10;;
20826;SDS011;10574;52.508;13.236;2023-08-20T15:02:25;0.68;;;0.68;;